Millstone, Connecticut
Current Conditions -  °F | °C
As of 1:56 AM on Wednesday 26 Nov 2014 (Local Time) from KGON Reporting Station
Scattered Clouds Scattered Clouds  
Wind Chill: 47°   Ceiling: Unl
Heat Index: 47°   Visibility: 9mi
Dew Point: 32°   Wind: 0mph
Humidity: 56%   Direction: NA
Pressure: 30.16"   Gusts: NA
Location:  41.3583°N, 72.1558°W
Report Text: KGON 260656Z AUTO 00000KT 9SM SCT120 08/00 A3016 RMK AO2 SLP213 T00830000
Loading
Personal Weather Stations






























Interactive Weather Map New forecast layout! Learn more

10-Day Weather Forecast

Advertisements
Track Severe Weather on mobile